Decoded Metar for KCAG (CRAIG in CO, USA) (IATA:CAG) | Meteo·Mobile Aviation Weather
aviador You're here:

KCAG Decoded Metar

CRAIG in CO, USA
Report Time2019-03-19 17:53:00
UTC Time2019-03-19 19:01:06
Flight Rules Old
Wind120° at 03 kt
W.Decomp.*RWY 07: 2.4 kt HW 1.8 kt RCW
W.Rank120° ranks 13
Current wind is below 120° avg. (4.7)
Visibility9999 m
Phenomena:N/A
Clouds:N/A
Expected CloudBase > 1,600 ft AGL from Temp-Dew spread
CeilingNone
Temp-4°C (ISA -7)
Dew Point-8°C (74% RH)
AAT-8.0°C
QNH1027 hPa
Density Alt4,967 ft
Elevation6,191 ft
Report Wrong Elevation
Raw Report
KCAG 191753Z AUTO 12003KT 10SM CLR M04/M08 A3033 RMK AO2 SLP319
T10391078 11039 21139 51008=

Extra information for KCAG:More info

Metar Taf Metar & Taf Last 4 Metars F.Rules Stats Wind Profile Meteogram Temp Stats Airport Information Weather charts Add Link Nearby VenuesMetar ALERT Operation Metar Decoded Social comments

AIRNAV info for KCAG